Terminal Aerodrome Forecast
Issued by NWS

Home | Current Version | Previous Version | Text Only | Print | Product List | Glossary On
Versions: 1 2 3 4 5 6 7 8 9 10 11 12 13 14 15 16
746
FTUS43 KSGF 081720
TAFBBG
TAF
KBBG 081720Z 0818/0918 31021G31KT P6SM -SHSN BKN040
     FM090300 31014G22KT P6SM BKN070
     FM090800 31013KT P6SM SCT140=

USA.gov is the U.S. government's official web portal to all federal, state and local government web resources and services.